sensor_id;sensor_type;location;lat;lon;timestamp;P1;durP1;ratioP1;P2;durP2;ratioP2
71941;SDS011;59997;53.300;-6.260;2022-12-05T00:01:24;7.78;;;2.42;;
71941;SDS011;59997;53.300;-6.260;2022-12-05T00:03:56;9.30;;;2.63;;
71941;SDS011;59997;53.300;-6.260;2022-12-05T00:06:24;8.27;;;2.85;;
71941;SDS011;59997;53.300;-6.260;2022-12-05T00:08:53;8.37;;;2.47;;
71941;SDS011;59997;53.300;-6.260;2022-12-05T00:11:20;10.38;;;3.20;;
71941;SDS011;59997;53.300;-6.260;2022-12-05T00:13:49;9.57;;;3.50;;
71941;SDS011;59997;53.300;-6.260;2022-12-05T00:16:18;8.98;;;3.03;;
71941;SDS011;59997;53.300;-6.260;2022-12-05T00:18:46;10.80;;;3.65;;
71941;SDS011;59997;53.300;-6.260;2022-12-05T00:21:13;11.27;;;3.80;;
71941;SDS011;59997;53.300;-6.260;2022-12-05T00:23:40;11.43;;;2.95;;
71941;SDS011;59997;53.300;-6.260;2022-12-05T00:26:06;10.40;;;3.53;;
71941;SDS011;59997;53.300;-6.260;2022-12-05T00:28:34;13.43;;;3.38;;
71941;SDS011;59997;53.300;-6.260;2022-12-05T00:31:03;9.68;;;3.03;;
71941;SDS011;59997;53.300;-6.260;2022-12-05T00:33:46;8.55;;;2.70;;
71941;SDS011;59997;53.300;-6.260;2022-12-05T00:36:14;10.73;;;2.42;;
71941;SDS011;59997;53.300;-6.260;2022-12-05T00:38:42;6.33;;;1.93;;
71941;SDS011;59997;53.300;-6.260;2022-12-05T00:41:19;7.82;;;2.45;;
71941;SDS011;59997;53.300;-6.260;2022-12-05T00:43:56;7.18;;;1.90;;
71941;SDS011;59997;53.300;-6.260;2022-12-05T00:46:24;12.75;;;2.10;;
71941;SDS011;59997;53.300;-6.260;2022-12-05T00:48:51;9.88;;;2.58;;
71941;SDS011;59997;53.300;-6.260;2022-12-05T00:51:19;8.07;;;1.93;;
71941;SDS011;59997;53.300;-6.260;2022-12-05T00:53:47;8.70;;;2.13;;
71941;SDS011;59997;53.300;-6.260;2022-12-05T00:56:16;6.97;;;2.35;;
71941;SDS011;59997;53.300;-6.260;2022-12-05T00:58:43;8.82;;;2.28;;
71941;SDS011;59997;53.300;-6.260;2022-12-05T01:01:11;9.00;;;2.63;;
71941;SDS011;59997;53.300;-6.260;2022-12-05T01:03:38;7.33;;;1.87;;
71941;SDS011;59997;53.300;-6.260;2022-12-05T01:06:05;8.10;;;1.98;;
71941;SDS011;59997;53.300;-6.260;2022-12-05T01:08:32;7.28;;;1.80;;
71941;SDS011;59997;53.300;-6.260;2022-12-05T01:11:00;6.32;;;1.80;;
71941;SDS011;59997;53.300;-6.260;2022-12-05T01:13:27;8.02;;;1.55;;
71941;SDS011;59997;53.300;-6.260;2022-12-05T01:15:53;8.73;;;1.60;;
71941;SDS011;59997;53.300;-6.260;2022-12-05T01:18:19;9.35;;;2.35;;
71941;SDS011;59997;53.300;-6.260;2022-12-05T01:20:46;6.95;;;1.80;;
71941;SDS011;59997;53.300;-6.260;2022-12-05T01:23:13;7.95;;;1.98;;
71941;SDS011;59997;53.300;-6.260;2022-12-05T01:25:39;6.22;;;2.05;;
71941;SDS011;59997;53.300;-6.260;2022-12-05T01:28:06;9.40;;;2.00;;
71941;SDS011;59997;53.300;-6.260;2022-12-05T01:30:37;8.43;;;1.90;;
71941;SDS011;59997;53.300;-6.260;2022-12-05T01:33:05;6.55;;;1.58;;
71941;SDS011;59997;53.300;-6.260;2022-12-05T01:35:32;8.10;;;1.48;;
71941;SDS011;59997;53.300;-6.260;2022-12-05T01:37:59;7.72;;;1.60;;
71941;SDS011;59997;53.300;-6.260;2022-12-05T01:40:27;5.83;;;1.50;;
71941;SDS011;59997;53.300;-6.260;2022-12-05T01:42:52;7.47;;;1.92;;
71941;SDS011;59997;53.300;-6.260;2022-12-05T01:45:35;8.00;;;2.08;;
71941;SDS011;59997;53.300;-6.260;2022-12-05T01:48:40;6.40;;;1.10;;
71941;SDS011;59997;53.300;-6.260;2022-12-05T01:51:00;6.85;;;1.55;;
71941;SDS011;59997;53.300;-6.260;2022-12-05T01:53:28;7.75;;;1.52;;
71941;SDS011;59997;53.300;-6.260;2022-12-05T01:55:56;8.20;;;1.77;;
71941;SDS011;59997;53.300;-6.260;2022-12-05T01:58:23;8.48;;;1.73;;
71941;SDS011;59997;53.300;-6.260;2022-12-05T02:00:56;8.90;;;1.83;;
71941;SDS011;59997;53.300;-6.260;2022-12-05T02:03:21;7.93;;;1.50;;
71941;SDS011;59997;53.300;-6.260;2022-12-05T02:05:49;6.53;;;1.38;;
71941;SDS011;59997;53.300;-6.260;2022-12-05T02:08:17;6.22;;;1.30;;
71941;SDS011;59997;53.300;-6.260;2022-12-05T02:10:44;6.60;;;1.60;;
71941;SDS011;59997;53.300;-6.260;2022-12-05T02:18:50;7.75;;;1.90;;
71941;SDS011;59997;53.300;-6.260;2022-12-05T02:27:09;6.57;;;1.48;;
71941;SDS011;59997;53.300;-6.260;2022-12-05T02:30:23;11.57;;;2.00;;
71941;SDS011;59997;53.300;-6.260;2022-12-05T02:33:22;9.73;;;2.03;;
71941;SDS011;59997;53.300;-6.260;2022-12-05T02:36:16;7.35;;;2.00;;
71941;SDS011;59997;53.300;-6.260;2022-12-05T02:39:02;7.20;;;1.97;;
71941;SDS011;59997;53.300;-6.260;2022-12-05T02:41:54;6.03;;;1.50;;
71941;SDS011;59997;53.300;-6.260;2022-12-05T02:44:39;7.13;;;1.60;;
71941;SDS011;59997;53.300;-6.260;2022-12-05T02:47:08;7.85;;;1.98;;
71941;SDS011;59997;53.300;-6.260;2022-12-05T02:49:38;8.45;;;1.80;;
71941;SDS011;59997;53.300;-6.260;2022-12-05T02:52:07;5.27;;;1.10;;
71941;SDS011;59997;53.300;-6.260;2022-12-05T02:54:40;6.20;;;1.40;;
71941;SDS011;59997;53.300;-6.260;2022-12-05T02:57:09;4.93;;;1.05;;
71941;SDS011;59997;53.300;-6.260;2022-12-05T02:59:37;8.38;;;1.50;;
71941;SDS011;59997;53.300;-6.260;2022-12-05T03:02:07;6.32;;;1.33;;
71941;SDS011;59997;53.300;-6.260;2022-12-05T03:04:34;6.53;;;1.70;;
71941;SDS011;59997;53.300;-6.260;2022-12-05T03:07:07;5.93;;;1.70;;
71941;SDS011;59997;53.300;-6.260;2022-12-05T03:09:42;6.03;;;1.77;;
71941;SDS011;59997;53.300;-6.260;2022-12-05T03:15:03;8.45;;;2.15;;
71941;SDS011;59997;53.300;-6.260;2022-12-05T03:17:50;7.40;;;1.60;;
71941;SDS011;59997;53.300;-6.260;2022-12-05T03:20:35;6.75;;;1.70;;
71941;SDS011;59997;53.300;-6.260;2022-12-05T03:23:19;5.22;;;1.10;;
71941;SDS011;59997;53.300;-6.260;2022-12-05T03:26:15;7.03;;;1.80;;
71941;SDS011;59997;53.300;-6.260;2022-12-05T03:46:11;9.43;;;2.15;;
71941;SDS011;59997;53.300;-6.260;2022-12-05T03:49:28;9.73;;;2.10;;
71941;SDS011;59997;53.300;-6.260;2022-12-05T03:54:52;12.02;;;2.90;;
71941;SDS011;59997;53.300;-6.260;2022-12-05T04:00:21;8.65;;;2.35;;
71941;SDS011;59997;53.300;-6.260;2022-12-05T04:02:52;8.30;;;2.13;;
71941;SDS011;59997;53.300;-6.260;2022-12-05T04:10:52;10.93;;;2.45;;
71941;SDS011;59997;53.300;-6.260;2022-12-05T04:13:26;8.48;;;3.00;;
71941;SDS011;59997;53.300;-6.260;2022-12-05T04:16:01;7.82;;;2.65;;
71941;SDS011;59997;53.300;-6.260;2022-12-05T04:19:03;9.40;;;2.78;;
71941;SDS011;59997;53.300;-6.260;2022-12-05T04:21:43;9.23;;;2.22;;
71941;SDS011;59997;53.300;-6.260;2022-12-05T04:24:15;7.65;;;2.00;;
71941;SDS011;59997;53.300;-6.260;2022-12-05T04:29:51;10.02;;;1.95;;
71941;SDS011;59997;53.300;-6.260;2022-12-05T04:32:25;9.18;;;2.05;;
71941;SDS011;59997;53.300;-6.260;2022-12-05T04:34:57;8.55;;;1.80;;
71941;SDS011;59997;53.300;-6.260;2022-12-05T04:37:29;10.63;;;2.42;;
71941;SDS011;59997;53.300;-6.260;2022-12-05T04:40:43;7.85;;;2.20;;
71941;SDS011;59997;53.300;-6.260;2022-12-05T04:43:01;9.30;;;2.17;;
71941;SDS011;59997;53.300;-6.260;2022-12-05T04:45:30;10.50;;;2.00;;
71941;SDS011;59997;53.300;-6.260;2022-12-05T04:47:58;7.95;;;2.30;;
71941;SDS011;59997;53.300;-6.260;2022-12-05T04:50:30;6.32;;;2.22;;
71941;SDS011;59997;53.300;-6.260;2022-12-05T04:53:04;8.43;;;2.10;;
71941;SDS011;59997;53.300;-6.260;2022-12-05T04:55:33;7.22;;;1.85;;
71941;SDS011;59997;53.300;-6.260;2022-12-05T05:03:29;7.50;;;2.10;;
71941;SDS011;59997;53.300;-6.260;2022-12-05T05:06:01;7.97;;;2.45;;
71941;SDS011;59997;53.300;-6.260;2022-12-05T05:08:28;7.45;;;2.05;;
71941;SDS011;59997;53.300;-6.260;2022-12-05T05:13:39;8.15;;;2.28;;
71941;SDS011;59997;53.300;-6.260;2022-12-05T05:16:07;10.50;;;2.73;;
71941;SDS011;59997;53.300;-6.260;2022-12-05T05:18:35;10.90;;;2.35;;
71941;SDS011;59997;53.300;-6.260;2022-12-05T05:21:01;7.75;;;2.33;;
71941;SDS011;59997;53.300;-6.260;2022-12-05T05:23:27;11.15;;;2.58;;
71941;SDS011;59997;53.300;-6.260;2022-12-05T05:25:55;9.47;;;2.70;;
71941;SDS011;59997;53.300;-6.260;2022-12-05T05:28:23;8.75;;;2.55;;
71941;SDS011;59997;53.300;-6.260;2022-12-05T05:30:49;11.32;;;2.42;;
71941;SDS011;59997;53.300;-6.260;2022-12-05T05:33:15;17.17;;;3.05;;
71941;SDS011;59997;53.300;-6.260;2022-12-05T05:35:42;7.38;;;2.20;;
71941;SDS011;59997;53.300;-6.260;2022-12-05T05:38:09;10.70;;;1.67;;
71941;SDS011;59997;53.300;-6.260;2022-12-05T05:40:35;11.30;;;2.60;;
71941;SDS011;59997;53.300;-6.260;2022-12-05T05:43:02;12.00;;;1.98;;
71941;SDS011;59997;53.300;-6.260;2022-12-05T05:45:28;12.82;;;2.25;;
71941;SDS011;59997;53.300;-6.260;2022-12-05T05:47:54;11.37;;;2.50;;
71941;SDS011;59997;53.300;-6.260;2022-12-05T05:50:20;13.48;;;2.92;;
71941;SDS011;59997;53.300;-6.260;2022-12-05T05:52:45;9.63;;;2.60;;
71941;SDS011;59997;53.300;-6.260;2022-12-05T05:55:11;9.97;;;2.30;;
71941;SDS011;59997;53.300;-6.260;2022-12-05T05:57:36;8.18;;;1.90;;
71941;SDS011;59997;53.300;-6.260;2022-12-05T06:00:05;8.70;;;1.55;;
71941;SDS011;59997;53.300;-6.260;2022-12-05T06:02:34;8.52;;;1.42;;
71941;SDS011;59997;53.300;-6.260;2022-12-05T06:05:02;9.17;;;1.87;;
71941;SDS011;59997;53.300;-6.260;2022-12-05T06:07:29;7.00;;;1.63;;
71941;SDS011;59997;53.300;-6.260;2022-12-05T06:09:55;8.48;;;1.77;;
71941;SDS011;59997;53.300;-6.260;2022-12-05T06:12:21;8.30;;;1.90;;
71941;SDS011;59997;53.300;-6.260;2022-12-05T06:14:47;7.33;;;1.70;;
71941;SDS011;59997;53.300;-6.260;2022-12-05T06:17:14;8.13;;;1.48;;
71941;SDS011;59997;53.300;-6.260;2022-12-05T06:19:41;6.75;;;1.40;;
71941;SDS011;59997;53.300;-6.260;2022-12-05T06:22:07;7.37;;;1.77;;
71941;SDS011;59997;53.300;-6.260;2022-12-05T06:24:34;7.07;;;1.90;;
71941;SDS011;59997;53.300;-6.260;2022-12-05T06:27:00;8.98;;;1.80;;
71941;SDS011;59997;53.300;-6.260;2022-12-05T06:29:28;12.80;;;2.10;;
71941;SDS011;59997;53.300;-6.260;2022-12-05T06:31:54;7.43;;;1.90;;
71941;SDS011;59997;53.300;-6.260;2022-12-05T06:34:20;9.00;;;2.10;;
71941;SDS011;59997;53.300;-6.260;2022-12-05T06:36:46;8.82;;;1.80;;
71941;SDS011;59997;53.300;-6.260;2022-12-05T06:39:11;6.07;;;1.47;;
71941;SDS011;59997;53.300;-6.260;2022-12-05T06:41:38;9.85;;;1.25;;
71941;SDS011;59997;53.300;-6.260;2022-12-05T06:44:04;10.25;;;2.33;;
71941;SDS011;59997;53.300;-6.260;2022-12-05T06:46:30;8.25;;;1.52;;
71941;SDS011;59997;53.300;-6.260;2022-12-05T06:48:56;10.02;;;1.63;;
71941;SDS011;59997;53.300;-6.260;2022-12-05T06:51:24;7.50;;;1.67;;
71941;SDS011;59997;53.300;-6.260;2022-12-05T06:53:50;8.45;;;1.48;;
71941;SDS011;59997;53.300;-6.260;2022-12-05T06:56:18;8.93;;;1.63;;
71941;SDS011;59997;53.300;-6.260;2022-12-05T06:58:45;8.55;;;1.50;;
71941;SDS011;59997;53.300;-6.260;2022-12-05T07:01:17;7.43;;;1.55;;
71941;SDS011;59997;53.300;-6.260;2022-12-05T07:04:16;7.88;;;1.63;;
71941;SDS011;59997;53.300;-6.260;2022-12-05T07:06:49;12.18;;;1.77;;
71941;SDS011;59997;53.300;-6.260;2022-12-05T07:09:21;8.43;;;1.88;;
71941;SDS011;59997;53.300;-6.260;2022-12-05T07:12:11;9.88;;;2.08;;
71941;SDS011;59997;53.300;-6.260;2022-12-05T07:14:38;10.43;;;1.70;;
71941;SDS011;59997;53.300;-6.260;2022-12-05T07:17:04;11.00;;;2.05;;
71941;SDS011;59997;53.300;-6.260;2022-12-05T07:19:30;10.13;;;1.88;;
71941;SDS011;59997;53.300;-6.260;2022-12-05T07:21:55;8.00;;;1.43;;
71941;SDS011;59997;53.300;-6.260;2022-12-05T07:24:22;8.50;;;1.20;;
71941;SDS011;59997;53.300;-6.260;2022-12-05T07:26:48;12.57;;;1.25;;
71941;SDS011;59997;53.300;-6.260;2022-12-05T07:29:15;7.32;;;1.40;;
71941;SDS011;59997;53.300;-6.260;2022-12-05T07:31:41;7.00;;;1.20;;
71941;SDS011;59997;53.300;-6.260;2022-12-05T07:34:08;8.40;;;1.15;;
71941;SDS011;59997;53.300;-6.260;2022-12-05T07:36:34;11.63;;;1.55;;
71941;SDS011;59997;53.300;-6.260;2022-12-05T07:39:00;6.10;;;1.20;;
71941;SDS011;59997;53.300;-6.260;2022-12-05T07:41:26;6.57;;;1.63;;
71941;SDS011;59997;53.300;-6.260;2022-12-05T07:43:54;10.25;;;1.35;;
71941;SDS011;59997;53.300;-6.260;2022-12-05T07:46:20;10.95;;;1.92;;
71941;SDS011;59997;53.300;-6.260;2022-12-05T07:48:48;7.75;;;1.17;;
71941;SDS011;59997;53.300;-6.260;2022-12-05T07:51:19;10.88;;;1.73;;
71941;SDS011;59997;53.300;-6.260;2022-12-05T07:53:45;10.57;;;1.20;;
71941;SDS011;59997;53.300;-6.260;2022-12-05T07:56:13;12.13;;;1.45;;
71941;SDS011;59997;53.300;-6.260;2022-12-05T07:58:44;6.75;;;1.20;;
71941;SDS011;59997;53.300;-6.260;2022-12-05T08:01:13;7.28;;;1.50;;
71941;SDS011;59997;53.300;-6.260;2022-12-05T08:03:59;7.18;;;1.15;;
71941;SDS011;59997;53.300;-6.260;2022-12-05T08:06:27;8.10;;;0.80;;
71941;SDS011;59997;53.300;-6.260;2022-12-05T08:08:54;5.80;;;1.08;;
71941;SDS011;59997;53.300;-6.260;2022-12-05T08:11:24;6.05;;;1.20;;
71941;SDS011;59997;53.300;-6.260;2022-12-05T08:13:52;7.03;;;0.85;;
71941;SDS011;59997;53.300;-6.260;2022-12-05T08:16:20;6.15;;;0.98;;
71941;SDS011;59997;53.300;-6.260;2022-12-05T08:18:53;7.00;;;0.80;;
71941;SDS011;59997;53.300;-6.260;2022-12-05T08:21:20;6.57;;;1.00;;
71941;SDS011;59997;53.300;-6.260;2022-12-05T08:23:46;5.53;;;0.75;;
71941;SDS011;59997;53.300;-6.260;2022-12-05T08:26:17;10.37;;;1.27;;
71941;SDS011;59997;53.300;-6.260;2022-12-05T08:28:54;6.60;;;0.75;;
71941;SDS011;59997;53.300;-6.260;2022-12-05T08:31:28;6.55;;;0.80;;
71941;SDS011;59997;53.300;-6.260;2022-12-05T08:33:57;4.10;;;0.63;;
71941;SDS011;59997;53.300;-6.260;2022-12-05T08:36:24;9.23;;;1.23;;
71941;SDS011;59997;53.300;-6.260;2022-12-05T08:38:57;7.25;;;0.70;;
71941;SDS011;59997;53.300;-6.260;2022-12-05T08:41:26;7.82;;;0.85;;
71941;SDS011;59997;53.300;-6.260;2022-12-05T08:44:02;6.13;;;0.40;;
71941;SDS011;59997;53.300;-6.260;2022-12-05T08:46:31;6.22;;;1.00;;
71941;SDS011;59997;53.300;-6.260;2022-12-05T08:48:58;6.60;;;0.80;;
71941;SDS011;59997;53.300;-6.260;2022-12-05T08:51:24;8.90;;;0.83;;
71941;SDS011;59997;53.300;-6.260;2022-12-05T08:53:51;5.10;;;1.10;;
71941;SDS011;59997;53.300;-6.260;2022-12-05T08:56:21;13.90;;;0.80;;
71941;SDS011;59997;53.300;-6.260;2022-12-05T08:58:47;6.03;;;0.63;;
71941;SDS011;59997;53.300;-6.260;2022-12-05T09:01:13;6.40;;;0.80;;
71941;SDS011;59997;53.300;-6.260;2022-12-05T09:03:43;5.20;;;0.50;;
71941;SDS011;59997;53.300;-6.260;2022-12-05T09:06:11;5.38;;;0.70;;
71941;SDS011;59997;53.300;-6.260;2022-12-05T09:08:46;6.75;;;0.73;;
71941;SDS011;59997;53.300;-6.260;2022-12-05T09:11:31;3.75;;;0.50;;
71941;SDS011;59997;53.300;-6.260;2022-12-05T09:13:59;7.43;;;0.65;;
71941;SDS011;59997;53.300;-6.260;2022-12-05T09:16:27;6.05;;;0.63;;
71941;SDS011;59997;53.300;-6.260;2022-12-05T09:18:56;4.47;;;0.50;;
71941;SDS011;59997;53.300;-6.260;2022-12-05T09:21:25;5.65;;;0.68;;
71941;SDS011;59997;53.300;-6.260;2022-12-05T09:23:53;4.63;;;0.68;;
71941;SDS011;59997;53.300;-6.260;2022-12-05T09:26:20;8.70;;;0.60;;
71941;SDS011;59997;53.300;-6.260;2022-12-05T09:28:50;6.82;;;0.60;;
71941;SDS011;59997;53.300;-6.260;2022-12-05T09:31:18;8.45;;;0.88;;
71941;SDS011;59997;53.300;-6.260;2022-12-05T09:33:46;10.13;;;1.17;;
71941;SDS011;59997;53.300;-6.260;2022-12-05T09:36:16;7.65;;;1.25;;
71941;SDS011;59997;53.300;-6.260;2022-12-05T09:38:46;10.63;;;1.10;;
71941;SDS011;59997;53.300;-6.260;2022-12-05T09:56:28;9.13;;;0.50;;
71941;SDS011;59997;53.300;-6.260;2022-12-05T09:58:57;5.97;;;0.90;;
71941;SDS011;59997;53.300;-6.260;2022-12-05T10:15:43;5.10;;;0.70;;
71941;SDS011;59997;53.300;-6.260;2022-12-05T10:24:17;6.85;;;0.93;;
71941;SDS011;59997;53.300;-6.260;2022-12-05T10:27:09;6.90;;;0.60;;
71941;SDS011;59997;53.300;-6.260;2022-12-05T10:32:36;5.57;;;0.80;;
71941;SDS011;59997;53.300;-6.260;2022-12-05T10:35:17;5.88;;;0.65;;
71941;SDS011;59997;53.300;-6.260;2022-12-05T10:37:56;6.80;;;0.80;;
71941;SDS011;59997;53.300;-6.260;2022-12-05T10:40:45;7.00;;;0.50;;
71941;SDS011;59997;53.300;-6.260;2022-12-05T10:43:27;7.30;;;0.55;;
71941;SDS011;59997;53.300;-6.260;2022-12-05T10:45:55;4.60;;;0.60;;
71941;SDS011;59997;53.300;-6.260;2022-12-05T10:48:22;5.03;;;0.77;;
71941;SDS011;59997;53.300;-6.260;2022-12-05T10:50:51;5.17;;;0.63;;
71941;SDS011;59997;53.300;-6.260;2022-12-05T10:53:26;5.07;;;0.60;;
71941;SDS011;59997;53.300;-6.260;2022-12-05T10:56:00;5.70;;;0.60;;
71941;SDS011;59997;53.300;-6.260;2022-12-05T10:58:27;3.30;;;0.30;;
71941;SDS011;59997;53.300;-6.260;2022-12-05T11:01:05;5.30;;;0.50;;
71941;SDS011;59997;53.300;-6.260;2022-12-05T11:03:41;6.90;;;0.70;;
71941;SDS011;59997;53.300;-6.260;2022-12-05T11:06:16;6.95;;;0.80;;
71941;SDS011;59997;53.300;-6.260;2022-12-05T11:08:57;6.25;;;1.02;;
71941;SDS011;59997;53.300;-6.260;2022-12-05T11:11:28;5.65;;;0.73;;
71941;SDS011;59997;53.300;-6.260;2022-12-05T11:14:25;7.77;;;0.60;;
71941;SDS011;59997;53.300;-6.260;2022-12-05T11:16:53;3.33;;;0.30;;
71941;SDS011;59997;53.300;-6.260;2022-12-05T11:22:04;6.70;;;0.70;;
71941;SDS011;59997;53.300;-6.260;2022-12-05T11:24:37;4.32;;;0.55;;
71941;SDS011;59997;53.300;-6.260;2022-12-05T11:30:17;4.15;;;0.32;;
71941;SDS011;59997;53.300;-6.260;2022-12-05T11:32:45;4.70;;;0.52;;
71941;SDS011;59997;53.300;-6.260;2022-12-05T11:35:27;2.90;;;0.35;;
71941;SDS011;59997;53.300;-6.260;2022-12-05T11:37:59;4.63;;;0.43;;
71941;SDS011;59997;53.300;-6.260;2022-12-05T11:52:53;9.43;;;0.90;;
71941;SDS011;59997;53.300;-6.260;2022-12-05T11:55:40;6.45;;;0.65;;
71941;SDS011;59997;53.300;-6.260;2022-12-05T11:58:40;6.28;;;0.80;;
71941;SDS011;59997;53.300;-6.260;2022-12-05T12:07:34;6.07;;;0.65;;
71941;SDS011;59997;53.300;-6.260;2022-12-05T12:10:07;7.80;;;0.98;;
71941;SDS011;59997;53.300;-6.260;2022-12-05T12:24:28;4.67;;;0.60;;
71941;SDS011;59997;53.300;-6.260;2022-12-05T12:27:07;10.35;;;1.20;;
71941;SDS011;59997;53.300;-6.260;2022-12-05T12:29:55;10.98;;;1.10;;
71941;SDS011;59997;53.300;-6.260;2022-12-05T12:33:04;4.80;;;0.50;;
71941;SDS011;59997;53.300;-6.260;2022-12-05T12:35:54;5.28;;;0.47;;
71941;SDS011;59997;53.300;-6.260;2022-12-05T12:47:14;10.88;;;1.05;;
71941;SDS011;59997;53.300;-6.260;2022-12-05T12:56:00;6.35;;;0.77;;
71941;SDS011;59997;53.300;-6.260;2022-12-05T13:04:09;7.53;;;1.05;;
71941;SDS011;59997;53.300;-6.260;2022-12-05T13:09:28;5.22;;;0.60;;
71941;SDS011;59997;53.300;-6.260;2022-12-05T13:12:01;7.13;;;1.02;;
71941;SDS011;59997;53.300;-6.260;2022-12-05T13:14:32;3.97;;;0.50;;
71941;SDS011;59997;53.300;-6.260;2022-12-05T13:17:03;8.35;;;1.08;;
71941;SDS011;59997;53.300;-6.260;2022-12-05T13:22:18;4.88;;;0.98;;
71941;SDS011;59997;53.300;-6.260;2022-12-05T13:24:46;7.82;;;0.82;;
71941;SDS011;59997;53.300;-6.260;2022-12-05T13:27:16;9.73;;;1.23;;
71941;SDS011;59997;53.300;-6.260;2022-12-05T13:29:57;5.23;;;0.70;;
71941;SDS011;59997;53.300;-6.260;2022-12-05T13:32:33;7.78;;;0.70;;
71941;SDS011;59997;53.300;-6.260;2022-12-05T13:38:27;8.65;;;0.68;;
71941;SDS011;59997;53.300;-6.260;2022-12-05T13:41:14;5.20;;;0.57;;
71941;SDS011;59997;53.300;-6.260;2022-12-05T13:44:00;9.40;;;0.87;;
71941;SDS011;59997;53.300;-6.260;2022-12-05T13:46:41;5.25;;;0.73;;
71941;SDS011;59997;53.300;-6.260;2022-12-05T13:49:28;9.35;;;0.70;;
71941;SDS011;59997;53.300;-6.260;2022-12-05T13:52:15;9.98;;;0.85;;
71941;SDS011;59997;53.300;-6.260;2022-12-05T14:04:45;4.35;;;0.60;;
71941;SDS011;59997;53.300;-6.260;2022-12-05T14:07:37;5.47;;;1.05;;
71941;SDS011;59997;53.300;-6.260;2022-12-05T14:10:19;11.98;;;1.10;;
71941;SDS011;59997;53.300;-6.260;2022-12-05T14:13:00;7.03;;;0.80;;
71941;SDS011;59997;53.300;-6.260;2022-12-05T14:15:45;7.90;;;0.80;;
71941;SDS011;59997;53.300;-6.260;2022-12-05T14:18:13;7.05;;;0.50;;
71941;SDS011;59997;53.300;-6.260;2022-12-05T14:21:08;5.22;;;0.60;;
71941;SDS011;59997;53.300;-6.260;2022-12-05T14:37:41;4.70;;;0.90;;
71941;SDS011;59997;53.300;-6.260;2022-12-05T14:42:55;7.90;;;1.00;;
71941;SDS011;59997;53.300;-6.260;2022-12-05T14:48:00;5.95;;;0.80;;
71941;SDS011;59997;53.300;-6.260;2022-12-05T14:50:41;7.95;;;1.50;;
71941;SDS011;59997;53.300;-6.260;2022-12-05T14:56:19;8.50;;;1.05;;
71941;SDS011;59997;53.300;-6.260;2022-12-05T14:59:04;7.80;;;1.70;;
71941;SDS011;59997;53.300;-6.260;2022-12-05T15:01:55;5.28;;;1.15;;
71941;SDS011;59997;53.300;-6.260;2022-12-05T15:04:40;9.57;;;1.30;;
71941;SDS011;59997;53.300;-6.260;2022-12-05T15:07:11;10.10;;;1.20;;
71941;SDS011;59997;53.300;-6.260;2022-12-05T15:20:58;7.20;;;1.37;;
71941;SDS011;59997;53.300;-6.260;2022-12-05T15:23:48;6.88;;;1.33;;
71941;SDS011;59997;53.300;-6.260;2022-12-05T15:26:24;7.05;;;0.70;;
71941;SDS011;59997;53.300;-6.260;2022-12-05T15:28:57;5.68;;;0.43;;
71941;SDS011;59997;53.300;-6.260;2022-12-05T15:31:25;5.78;;;1.02;;
71941;SDS011;59997;53.300;-6.260;2022-12-05T15:33:54;6.87;;;0.73;;
71941;SDS011;59997;53.300;-6.260;2022-12-05T15:36:24;8.80;;;0.80;;
71941;SDS011;59997;53.300;-6.260;2022-12-05T15:39:01;5.05;;;0.80;;
71941;SDS011;59997;53.300;-6.260;2022-12-05T15:41:52;7.32;;;1.08;;
71941;SDS011;59997;53.300;-6.260;2022-12-05T15:44:19;8.30;;;1.42;;
71941;SDS011;59997;53.300;-6.260;2022-12-05T15:46:55;10.50;;;1.20;;
71941;SDS011;59997;53.300;-6.260;2022-12-05T15:49:25;12.88;;;1.40;;
71941;SDS011;59997;53.300;-6.260;2022-12-05T15:51:57;9.55;;;1.40;;
71941;SDS011;59997;53.300;-6.260;2022-12-05T15:55:03;10.45;;;1.65;;
71941;SDS011;59997;53.300;-6.260;2022-12-05T15:57:55;7.75;;;1.08;;
71941;SDS011;59997;53.300;-6.260;2022-12-05T16:00:28;8.80;;;1.40;;
71941;SDS011;59997;53.300;-6.260;2022-12-05T16:03:11;7.93;;;1.20;;
71941;SDS011;59997;53.300;-6.260;2022-12-05T16:05:48;7.97;;;1.25;;
71941;SDS011;59997;53.300;-6.260;2022-12-05T16:08:20;9.27;;;1.77;;
71941;SDS011;59997;53.300;-6.260;2022-12-05T16:10:49;14.25;;;1.48;;
71941;SDS011;59997;53.300;-6.260;2022-12-05T16:13:16;11.27;;;1.43;;
71941;SDS011;59997;53.300;-6.260;2022-12-05T16:15:47;8.88;;;1.30;;
71941;SDS011;59997;53.300;-6.260;2022-12-05T16:18:28;9.05;;;1.65;;
71941;SDS011;59997;53.300;-6.260;2022-12-05T16:20:56;7.60;;;1.40;;
71941;SDS011;59997;53.300;-6.260;2022-12-05T16:23:29;8.65;;;1.30;;
71941;SDS011;59997;53.300;-6.260;2022-12-05T16:29:01;6.82;;;1.08;;
71941;SDS011;59997;53.300;-6.260;2022-12-05T16:31:28;7.57;;;1.13;;
71941;SDS011;59997;53.300;-6.260;2022-12-05T16:34:06;7.18;;;1.42;;
71941;SDS011;59997;53.300;-6.260;2022-12-05T16:36:44;8.57;;;1.77;;
71941;SDS011;59997;53.300;-6.260;2022-12-05T16:39:12;6.60;;;1.30;;
71941;SDS011;59997;53.300;-6.260;2022-12-05T16:41:39;9.07;;;1.50;;
71941;SDS011;59997;53.300;-6.260;2022-12-05T16:46:57;6.05;;;1.52;;
71941;SDS011;59997;53.300;-6.260;2022-12-05T16:52:10;8.70;;;1.65;;
71941;SDS011;59997;53.300;-6.260;2022-12-05T16:54:40;13.13;;;2.08;;
71941;SDS011;59997;53.300;-6.260;2022-12-05T16:57:08;11.95;;;2.15;;
71941;SDS011;59997;53.300;-6.260;2022-12-05T16:59:38;8.90;;;1.90;;
71941;SDS011;59997;53.300;-6.260;2022-12-05T17:02:14;13.13;;;1.60;;
71941;SDS011;59997;53.300;-6.260;2022-12-05T17:04:42;10.02;;;2.17;;
71941;SDS011;59997;53.300;-6.260;2022-12-05T17:07:08;8.10;;;1.80;;
71941;SDS011;59997;53.300;-6.260;2022-12-05T17:09:34;6.93;;;1.60;;
71941;SDS011;59997;53.300;-6.260;2022-12-05T17:12:06;7.90;;;1.60;;
71941;SDS011;59997;53.300;-6.260;2022-12-05T17:14:39;5.68;;;1.30;;
71941;SDS011;59997;53.300;-6.260;2022-12-05T17:17:12;5.35;;;1.05;;
71941;SDS011;59997;53.300;-6.260;2022-12-05T17:19:39;7.18;;;1.15;;
71941;SDS011;59997;53.300;-6.260;2022-12-05T17:22:05;10.07;;;1.77;;
71941;SDS011;59997;53.300;-6.260;2022-12-05T17:24:31;8.93;;;1.98;;
71941;SDS011;59997;53.300;-6.260;2022-12-05T17:26:57;7.30;;;1.50;;
71941;SDS011;59997;53.300;-6.260;2022-12-05T17:29:25;7.00;;;1.40;;
71941;SDS011;59997;53.300;-6.260;2022-12-05T17:31:52;9.68;;;1.63;;
71941;SDS011;59997;53.300;-6.260;2022-12-05T17:34:18;9.07;;;2.20;;
71941;SDS011;59997;53.300;-6.260;2022-12-05T17:36:44;8.20;;;1.70;;
71941;SDS011;59997;53.300;-6.260;2022-12-05T17:39:10;8.48;;;2.20;;
71941;SDS011;59997;53.300;-6.260;2022-12-05T17:41:37;9.48;;;1.73;;
71941;SDS011;59997;53.300;-6.260;2022-12-05T17:44:06;7.60;;;1.75;;
71941;SDS011;59997;53.300;-6.260;2022-12-05T17:46:32;9.27;;;2.33;;
71941;SDS011;59997;53.300;-6.260;2022-12-05T17:48:59;11.13;;;2.50;;
71941;SDS011;59997;53.300;-6.260;2022-12-05T17:51:25;8.25;;;2.00;;
71941;SDS011;59997;53.300;-6.260;2022-12-05T17:53:51;9.00;;;2.27;;
71941;SDS011;59997;53.300;-6.260;2022-12-05T17:56:19;14.32;;;3.50;;
71941;SDS011;59997;53.300;-6.260;2022-12-05T17:58:46;12.65;;;2.53;;
71941;SDS011;59997;53.300;-6.260;2022-12-05T18:01:14;10.63;;;2.35;;
71941;SDS011;59997;53.300;-6.260;2022-12-05T18:03:42;9.43;;;2.13;;
71941;SDS011;59997;53.300;-6.260;2022-12-05T18:06:09;12.57;;;2.70;;
71941;SDS011;59997;53.300;-6.260;2022-12-05T18:08:35;12.93;;;2.88;;
71941;SDS011;59997;53.300;-6.260;2022-12-05T18:11:08;11.05;;;2.03;;
71941;SDS011;59997;53.300;-6.260;2022-12-05T18:13:35;11.25;;;2.53;;
71941;SDS011;59997;53.300;-6.260;2022-12-05T18:16:01;13.82;;;2.75;;
71941;SDS011;59997;53.300;-6.260;2022-12-05T18:18:27;9.87;;;2.30;;
71941;SDS011;59997;53.300;-6.260;2022-12-05T18:21:09;13.07;;;2.55;;
71941;SDS011;59997;53.300;-6.260;2022-12-05T18:23:36;10.05;;;1.88;;
71941;SDS011;59997;53.300;-6.260;2022-12-05T18:26:05;13.10;;;2.50;;
71941;SDS011;59997;53.300;-6.260;2022-12-05T18:28:34;10.00;;;2.55;;
71941;SDS011;59997;53.300;-6.260;2022-12-05T18:31:08;11.23;;;1.73;;